LYBE/BEG METAR and TAF weather

Enter ICAO airport designator
Station Type Date Time Source
LYBE METAR 2021/08/04 20:00 UTC NOAA

LYBE 042000Z 09006KT CAVOK 26/14 Q1012 NOSIG


Station Type Date Time Source
LYBE Decoded METAR 2021/08/04 20:00 UTC NOAA

Beograd / Surcin, Serbia and Montenegro (LYBE) 44-49N 020-17E 99M
Aug 04, 2021 - 04:00 PM EDT / 2021.08.04 2000 UTC
Wind: from the E (090 degrees) at 7 MPH (6 KT):0
Visibility: greater than 7 mile(s):0
Temperature: 78 F (26 C)
Dew Point: 57 F (14 C)
Relative Humidity: 47%
Pressure (altimeter): 29.88 in. Hg (1012 hPa)
ob: LYBE 042000Z 09006KT CAVOK 26/14 Q1012 NOSIG
cycle: 20

Station Type Date Time Source
LYBE TAF 2021/08/04 18:21 UTC NOAA

TAF LYBE 041700Z 0418/0518 08006KT CAVOK TX29/0513Z TN21/0503Z
BECMG 0503/0505 18012KT
TEMPO 0509/0515 25017G30KT 4000 TSRA SCT035CB BKN040
BECMG 0514/0516 25006KT

Example: see airport list